ADDS METAR Data INFO
IDs: Format: Raw Decoded Include TAF

Data at: 2209 UTC 24 Jun 2018

KDET 242153Z 02008KT 10SM FEW021 BKN041 23/16 A2999 RMK AO2 SLP151 T02330156 $
KDET 242053Z 02010KT 10SM SCT024 BKN033 22/16 A2997 RMK AO2 SLP146 T02220161 53019 $
KDET 241953Z 02007KT 10SM BKN025 22/17 A2995 RMK AO2 SLP139 T02220167 $
KDET 241853Z 01008KT 10SM BKN016 23/17 A2991 RMK AO2 SLP125 T02330167 $
KDET 241849Z 35009KT 10SM BKN016 23/17 A2991 RMK AO2 $
KDET 241753Z 36008KT 10SM BKN011 BKN015 22/17 A2990 RMK AO2 RAE44 SLP123 P0001 60001 T02170172 10228 20194 51005 $
KDET 241750Z 03009KT 10SM BKN011 BKN015 22/18 A2990 RMK AO2 RAE44 P0001 $
KDET 241653Z 34006KT 2SM -RA BKN006 BKN014 19/18 A2990 RMK AO2 RAB01 SLP122 P0000 T01940178 $
KDET 241607Z 34007KT 2SM -RA BKN006 BKN011 20/18 A2989 RMK AO2 RAB01 P0000 T02000178 $
KDET 241553Z 01008KT 8SM BKN016 BKN065 21/17 A2989 RMK AO2 RAB39E50 SLP118 P0000 T02060172 $
KDET 241501Z 30006KT 10SM BKN016 BKN065 22/16 A2986 RMK AO2 T02220161 $
KDET 241453Z 31007KT 10SM FEW016 BKN065 23/17 A2985 RMK AO2 SLP105 T02280167 53014 $
KDET 241353Z VRB05KT 10SM FEW016 BKN065 22/16 A2983 RMK AO2 SLP097 T02220161 $
KDET 241253Z VRB04KT 10SM FEW016 BKN065 21/16 A2982 RMK AO2 SLP096 T02060161
KDET 241153Z 29005KT 10SM FEW010 OVC060 19/17 A2981 RMK AO2 SLP092 60002 70018 T01940172 10206 20194 52011
KDET 241134Z 28006KT 10SM FEW009 OVC055 19/17 A2981 RMK AO2 T01940172
KDET 241053Z 27004KT 10SM OVC033 19/17 A2980 RMK AO2 SLP088 T01940172
KDET 240953Z 26004KT 10SM SCT028 BKN033 OVC075 20/18 A2979 RMK AO2 RAB11E43 SLP086 P0002 T02000178
KDET 240941Z 26005KT 9SM -RA SCT021 SCT031 OVC075 20/18 A2979 RMK AO2 RAB11 P0002 T02000178
KDET 240907Z 25006KT 8SM SCT019 BKN026 OVC050 20/18 A2978 RMK AO2 T02000183
KDET 240853Z 24003KT 5SM BR FEW026 BKN033 OVC085 20/19 A2978 RMK AO2 SLP083 T02000189 53002
KDET 240753Z 00000KT 5SM BR OVC075 21/19 A2978 RMK AO2 SLP081 T02060189
KDET 240723Z 00000KT 3SM BR FEW042 OVC080 20/18 A2978 RMK AO2 T02000183
KDET 240711Z 00000KT 2 1/2SM BR FEW042 SCT070 OVC085 21/18 A2978 RMK AO2 T02060183
KDET 240653Z 00000KT 3SM BR BKN042 OVC080 20/19 A2977 RMK AO2 SLP079 T02000189
KDET 240553Z 00000KT 8SM BKN037 OVC070 21/19 A2977 RMK AO2 SLP078 60010 T02060189 10217 20206 50001
KDET 240453Z 00000KT 6SM BR FEW036 SCT047 OVC060 21/20 A2978 RMK AO2 SLP079 T02110200 402610189
KDET 240353Z 00000KT 7SM OVC090 21/19 A2977 RMK AO2 SLP078 T02110194
KDET 240334Z 00000KT 7SM FEW018 SCT026 OVC085 21/19 A2977 RMK AO2 T02110194
KDET 240312Z 00000KT 6SM BR BKN017 BKN075 OVC090 21/20 A2977 RMK AO2 T02110200
KDET 240253Z 00000KT 7SM SCT075 BKN090 OVC110 21/19 A2977 RMK AO2 SLP077 60010 T02110194 53014
KDET 240153Z 00000KT 9SM OVC100 21/19 A2975 RMK AO2 SLP071 T02110194
KDET 240053Z 03003KT 10SM OVC075 21/19 A2974 RMK AO2 RAE42 SLP067 P0010 T02110194
KDET 240030Z 03004KT 4SM -RA BR FEW024 SCT048 OVC070 21/19 A2973 RMK AO2 P0010 T02110194
KDET 240013Z 20007KT 2 1/2SM -RA BR SCT028 OVC038 21/19 A2973 RMK AO2 P0008 T02110189
KDET 240003Z 23006KT 1 1/2SM +RA BR BKN029 OVC037 21/19 A2973 RMK AO2 P0006 T02110189
KDET 232353Z 21007KT 10SM -RA BKN029 OVC037 22/19 A2973 RMK AO2 LTG DSNT NE RAB2257E18B44 SLP063 P0001 60002 T02170189 10261 20217 53012
KDET 232253Z 25007KT 10SM BKN041 BKN050 OVC065 22/18 A2971 RMK AO2 SLP058 T02220183
KDET 232153Z 25005KT 10SM FEW065 SCT080 BKN090 25/18 A2970 RMK AO2 SLP052 T02500178
KDET 232053Z 00000KT 10SM FEW075 OVC090 25/18 A2969 RMK AO2 RAB05E15 SLP050 P0000 60001 T02500183 53000
KDET 231953Z 00000KT 10SM FEW021 BKN080 25/18 A2968 RMK AO2 SLP048 T02500183
KDET 231853Z 02005KT 10SM SCT065 BKN110 24/20 A2969 RMK AO2 RAB1758E43 SLP050 P0001 T02390200
KDET 231820Z 04006KT 6SM -RA SCT015 OVC050 23/20 A2969 RMK AO2 RAB1758 P0001 T02330200
KDET 231809Z 03006KT 5SM -RA BKN015 BKN060 OVC120 23/19 A2969 RMK AO2 RAB1758 P0000 T02330194
KDET 231753Z 07004KT 10SM FEW015 SCT041 BKN055 24/21 A2969 RMK AO2 RAE44 SLP050 P0002 60004 T02390206 10239 20200 58001
KDET 231653Z 04004KT 3SM -RA BR FEW024 BKN060 OVC075 22/20 A2969 RMK AO2 LTG DSNT E AND S RAB01E12B28 SLP051 P0002 T02170200
KDET 231614Z 08005KT 10SM BKN015 OVC022 22/19 A2970 RMK AO2 LTG DSNT E RAB01E12 P0000 T02170194
KDET 231603Z 12006KT 10SM -RA BKN013 BKN022 OVC028 22/19 A2970 RMK AO2 RAB01 P0000 T02170189
KDET 231553Z 13005KT 10SM BKN015 BKN022 OVC028 22/19 A2969 RMK AO2 SLP052 T02170189
KDET 231550Z 12005KT 10SM SCT015 BKN022 OVC043 22/19 A2969 RMK AO2
KDET 231453Z 04004KT 10SM BKN011 OVC018 22/19 A2968 RMK AO2 SLP048 T02220189 58006
KDET 231445Z 07005KT 10SM BKN011 OVC018 22/19 A2968 RMK AO2 T02220189
KDET 231353Z 07005KT 10SM OVC009 21/19 A2969 RMK AO2 SLP051 T02110189
KDET 231253Z 09004KT 10SM OVC007 21/19 A2969 RMK AO2 SLP052 T02060189
KDET 231153Z 09003KT 10SM OVC008 19/18 A2970 RMK AO2 CIG 007V011 SLP055 60000 70003 T01940183 10200 20189 53006
KDET 231053Z 11004KT 10SM OVC008 19/18 A2970 RMK AO2 RAE0957 SLP054 P0000 T01940178
KDET 231032Z 13006KT 10SM OVC008 19/18 A2969 RMK AO2 RAE0957 P0000 T01940178